createdAt,value
2023-04-15T00:00:55.376Z,95889.31
2023-04-15T00:03:43.990Z,95871.22
2023-04-15T00:06:32.518Z,95872.22
2023-04-15T00:09:21.069Z,95868.28
2023-04-15T00:12:10.770Z,95856.91
2023-04-15T00:14:59.070Z,95867.97
2023-04-15T00:17:47.846Z,95864.03
2023-04-15T00:20:37.075Z,95866.59
2023-04-15T00:23:26.028Z,95863.25
2023-04-15T00:26:14.429Z,95866.22
2023-04-15T00:29:04.731Z,95861.44
2023-04-15T00:31:53.561Z,95869.34
2023-04-15T00:34:42.162Z,95861.53
2023-04-15T00:37:30.603Z,95853.50
2023-04-15T00:40:20.164Z,95857.47
2023-04-15T00:43:08.494Z,95856.22
2023-04-15T00:45:58.468Z,95858.88
2023-04-15T00:48:47.300Z,95852.47
2023-04-15T00:51:36.983Z,95855.81
2023-04-15T00:54:25.589Z,95850.69
2023-04-15T00:57:14.024Z,95839.22
2023-04-15T01:00:02.660Z,95837.03
2023-04-15T01:02:53.233Z,95848.22
2023-04-15T01:05:41.826Z,95842.66
2023-04-15T01:08:30.887Z,95842.25
2023-04-15T01:11:19.482Z,95837.59
2023-04-15T01:14:08.369Z,95840.69
2023-04-15T01:16:56.808Z,95839.69
2023-04-15T01:19:46.640Z,95841.28
2023-04-15T01:22:35.653Z,95831.69
2023-04-15T01:25:33.182Z,95826.47
2023-04-15T01:28:21.597Z,95834.06
2023-04-15T01:31:11.708Z,95836.56
2023-04-15T01:34:00.872Z,95836.75
2023-04-15T01:37:07.814Z,95844.69
2023-04-15T01:39:57.313Z,95840.50
2023-04-15T01:42:47.012Z,95843.38
2023-04-15T01:45:38.276Z,95835.28
2023-04-15T01:48:28.295Z,95838.16
2023-04-15T01:51:19.500Z,95844.25
2023-04-15T01:54:09.077Z,95833.19
2023-04-15T01:56:58.896Z,95834.97
2023-04-15T01:59:49.822Z,95840.28
2023-04-15T02:02:39.730Z,95842.09
2023-04-15T02:05:29.530Z,95835.72
2023-04-15T02:08:19.112Z,95831.81
2023-04-15T02:11:08.717Z,95828.25
2023-04-15T02:13:58.343Z,95833.00
2023-04-15T02:16:50.082Z,95830.81
2023-04-15T02:19:40.563Z,95831.59
2023-04-15T02:22:30.391Z,95836.84
2023-04-15T02:25:20.525Z,95840.78
2023-04-15T02:28:10.108Z,95846.03
2023-04-15T02:30:59.906Z,95849.00
2023-04-15T02:33:51.096Z,95856.91
2023-04-15T02:36:40.787Z,95848.03
2023-04-15T02:39:30.388Z,95854.34
2023-04-15T02:42:21.719Z,95855.13
2023-04-15T02:45:13.240Z,95858.09
2023-04-15T02:48:06.338Z,95860.19
2023-04-15T02:51:12.355Z,95867.88
2023-04-15T02:54:02.069Z,95861.66
2023-04-15T02:56:52.262Z,95855.94
2023-04-15T02:59:41.832Z,95853.38
2023-04-15T03:02:35.367Z,95863.44
2023-04-15T03:05:25.775Z,95862.03
2023-04-15T03:08:16.705Z,95858.38
2023-04-15T03:11:07.721Z,95854.13
2023-04-15T03:13:59.060Z,95857.31
2023-04-15T03:16:54.285Z,95854.22
2023-04-15T03:19:43.860Z,95855.31
2023-04-15T03:22:34.603Z,95853.13
2023-04-15T03:25:27.133Z,95860.44
2023-04-15T03:28:16.869Z,95850.38
2023-04-15T03:31:06.769Z,95851.91
2023-04-15T03:33:56.432Z,95853.94
2023-04-15T03:36:47.323Z,95845.16
2023-04-15T03:39:37.095Z,95846.75
2023-04-15T03:42:28.106Z,95846.34
2023-04-15T03:45:17.894Z,95838.81
2023-04-15T03:48:17.323Z,95846.09
2023-04-15T03:51:07.678Z,95832.19
2023-04-15T03:53:57.200Z,95829.94
2023-04-15T03:56:46.756Z,95838.72
2023-04-15T03:59:37.754Z,95837.69
2023-04-15T04:02:28.304Z,95832.22
2023-04-15T04:05:18.854Z,95839.41
2023-04-15T04:08:09.112Z,95839.41
2023-04-15T04:10:58.712Z,95838.84
2023-04-15T04:13:48.321Z,95843.94
2023-04-15T04:16:39.274Z,95840.91
2023-04-15T04:19:30.016Z,95829.25
2023-04-15T04:22:19.575Z,95841.59
2023-04-15T04:25:11.119Z,95839.13
2023-04-15T04:28:00.744Z,95834.50
2023-04-15T04:30:50.669Z,95839.75
2023-04-15T04:33:41.925Z,95845.25
2023-04-15T04:36:31.746Z,95844.34
2023-04-15T04:39:21.281Z,95844.34
2023-04-15T04:42:10.843Z,95843.94
2023-04-15T04:45:00.489Z,95846.00
2023-04-15T04:47:50.306Z,95854.41
2023-04-15T04:50:41.386Z,95847.50
2023-04-15T04:53:31.108Z,95858.28
2023-04-15T04:56:20.685Z,95852.47
2023-04-15T04:59:10.472Z,95843.81
2023-04-15T05:02:00.188Z,95858.44
2023-04-15T05:04:50.171Z,95858.00
2023-04-15T05:07:41.166Z,95857.41
2023-04-15T05:10:30.706Z,95851.53
2023-04-15T05:13:21.639Z,95854.59
2023-04-15T05:16:11.310Z,95855.09
2023-04-15T05:19:01.213Z,95854.91
2023-04-15T05:21:51.040Z,95853.88
2023-04-15T05:24:42.076Z,95862.41
2023-04-15T05:27:31.788Z,95858.94
2023-04-15T05:30:22.263Z,95854.69
2023-04-15T05:33:11.848Z,95857.56
2023-04-15T05:36:01.454Z,95859.81
2023-04-15T05:38:51.053Z,95866.94
2023-04-15T05:41:42.028Z,95870.91
2023-04-15T05:44:31.695Z,95867.91
2023-04-15T05:47:21.400Z,95862.00
2023-04-15T05:50:11.905Z,95869.72
2023-04-15T05:53:02.082Z,95877.25
2023-04-15T05:55:51.639Z,95872.91
2023-04-15T05:58:42.548Z,95872.91
2023-04-15T06:01:32.169Z,95874.66
2023-04-15T06:04:21.977Z,95878.53
2023-04-15T06:07:11.621Z,95872.94
2023-04-15T06:10:01.584Z,95875.09
2023-04-15T06:12:51.238Z,95873.97
2023-04-15T06:15:42.328Z,95876.25
2023-04-15T06:18:31.900Z,95876.44
2023-04-15T06:21:21.613Z,95879.06
2023-04-15T06:24:11.458Z,95882.59
2023-04-15T06:27:02.185Z,95883.69
2023-04-15T06:29:51.729Z,95881.00
2023-04-15T06:32:42.710Z,95888.34
2023-04-15T06:35:32.304Z,95883.69
2023-04-15T06:38:21.910Z,95887.34
2023-04-15T06:41:11.599Z,95879.44
2023-04-15T06:44:01.203Z,95883.41
2023-04-15T06:46:50.826Z,95881.69
2023-04-15T06:49:43.172Z,95889.41
2023-04-15T06:52:32.793Z,95890.69
2023-04-15T06:55:22.390Z,95889.88
2023-04-15T06:58:11.942Z,95896.03
2023-04-15T07:01:05.440Z,95899.97
2023-04-15T07:03:55.064Z,95896.06
2023-04-15T07:06:46.121Z,95911.66
2023-04-15T07:09:35.737Z,95906.72
2023-04-15T07:12:25.378Z,95897.44
2023-04-15T07:15:14.939Z,95897.22
2023-04-15T07:18:04.750Z,95891.50
2023-04-15T07:20:54.348Z,95900.97
2023-04-15T07:23:45.313Z,95898.81
2023-04-15T07:26:34.844Z,95892.47
2023-04-15T07:29:24.523Z,95891.50
2023-04-15T07:32:14.086Z,95891.28
2023-04-15T07:35:03.803Z,95895.63
2023-04-15T07:37:53.388Z,95894.66
2023-04-15T07:40:44.382Z,95903.03
2023-04-15T07:43:33.959Z,95903.03
2023-04-15T07:46:24.695Z,95907.31
2023-04-15T07:49:14.484Z,95903.53
2023-04-15T07:52:04.219Z,95904.16
2023-04-15T07:54:53.742Z,95900.06
2023-04-15T07:57:44.749Z,95897.13
2023-04-15T08:00:34.451Z,95903.53
2023-04-15T08:03:24.093Z,95912.00
2023-04-15T08:06:14.297Z,95913.31
2023-04-15T08:09:04.199Z,95906.28
2023-04-15T08:11:54.575Z,95904.97
2023-04-15T08:14:45.956Z,95900.13
2023-04-15T08:17:35.629Z,95907.56
2023-04-15T08:20:25.351Z,95911.03
2023-04-15T08:23:14.964Z,95904.50
2023-04-15T08:26:04.814Z,95909.59
2023-04-15T08:28:54.468Z,95916.53
2023-04-15T08:31:45.717Z,95912.00
2023-04-15T08:34:35.853Z,95915.28
2023-04-15T08:37:26.736Z,95922.91
2023-04-15T08:40:17.063Z,95923.63
2023-04-15T08:43:06.912Z,95928.00
2023-04-15T08:45:59.051Z,95926.41
2023-04-15T08:48:50.951Z,95922.25
2023-04-15T08:51:41.468Z,95922.47
2023-04-15T08:54:31.331Z,95910.97
2023-04-15T08:57:21.176Z,95924.94
2023-04-15T09:00:12.555Z,95929.38
2023-04-15T09:03:02.359Z,95927.66
2023-04-15T09:05:53.576Z,95928.19
2023-04-15T09:08:43.167Z,95923.84
2023-04-15T09:11:32.956Z,95932.72
2023-04-15T09:14:22.886Z,95935.28
2023-04-15T09:17:12.756Z,95940.03
2023-04-15T09:20:09.780Z,95940.50
2023-04-15T09:23:00.734Z,95938.22
2023-04-15T09:25:50.599Z,95940.53
2023-04-15T09:28:43.622Z,95935.53
2023-04-15T09:31:33.339Z,95932.63
2023-04-15T09:34:22.909Z,95941.75
2023-04-15T09:37:24.608Z,95933.63
2023-04-15T09:40:34.638Z,95943.22
2023-04-15T09:43:25.592Z,95939.78
2023-04-15T09:46:15.203Z,95932.56
2023-04-15T09:49:09.212Z,95941.50
2023-04-15T09:52:06.231Z,95948.06
2023-04-15T09:54:58.218Z,95940.41
2023-04-15T09:57:49.261Z,95939.09
2023-04-15T10:00:39.058Z,95943.09
2023-04-15T10:03:31.176Z,95938.16
2023-04-15T10:06:21.287Z,95941.88
2023-04-15T10:09:10.891Z,95940.16
2023-04-15T10:12:01.163Z,95940.03
2023-04-15T10:14:56.704Z,95939.56
2023-04-15T10:17:46.795Z,95941.00
2023-04-15T10:20:36.945Z,95945.13
2023-04-15T10:23:27.388Z,95950.84
2023-04-15T10:26:17.696Z,95941.63
2023-04-15T10:29:07.478Z,95955.97
2023-04-15T10:31:58.725Z,95948.31
2023-04-15T10:34:49.603Z,95946.56
2023-04-15T10:37:40.094Z,95949.41
2023-04-15T10:40:31.676Z,95954.97
2023-04-15T10:43:27.052Z,95954.19
2023-04-15T10:46:19.805Z,95955.97
2023-04-15T10:49:17.342Z,95959.22
2023-04-15T10:52:09.682Z,95960.38
2023-04-15T10:55:14.672Z,95958.13
2023-04-15T10:58:04.325Z,95959.25
2023-04-15T11:00:55.483Z,95956.47
2023-04-15T11:03:45.952Z,95954.88
2023-04-15T11:06:46.411Z,95953.00
2023-04-15T11:09:36.657Z,95953.97
2023-04-15T11:12:35.579Z,95949.31
2023-04-15T11:15:29.802Z,95952.84
2023-04-15T11:18:20.955Z,95950.47
2023-04-15T11:21:10.637Z,95952.41
2023-04-15T11:24:02.325Z,95955.97
2023-04-15T11:26:58.665Z,95960.44
2023-04-15T11:29:48.355Z,95968.97
2023-04-15T11:32:37.962Z,95970.06
2023-04-15T11:35:28.505Z,95968.66
2023-04-15T11:38:18.355Z,95973.41
2023-04-15T11:41:09.335Z,95981.47
2023-04-15T11:43:58.930Z,95975.97
2023-04-15T11:46:48.608Z,95981.13
2023-04-15T11:49:41.617Z,95977.34
2023-04-15T11:52:29.969Z,95977.69
2023-04-15T11:55:18.603Z,95974.72
2023-04-15T11:58:10.489Z,95988.56
2023-04-15T12:01:00.092Z,95981.81
2023-04-15T12:03:49.576Z,95991.91
2023-04-15T12:06:39.108Z,95985.88
2023-04-15T12:09:27.940Z,95989.00
2023-04-15T12:12:16.661Z,95983.16
2023-04-15T12:15:07.309Z,95993.28
2023-04-15T12:17:56.137Z,95992.88
2023-04-15T12:20:45.770Z,95990.50
2023-04-15T12:23:38.424Z,96000.94
2023-04-15T12:26:31.338Z,96008.50
2023-04-15T12:29:19.980Z,96010.41
2023-04-15T12:32:10.902Z,96015.97
2023-04-15T12:34:59.633Z,96018.53
2023-04-15T12:37:47.950Z,96019.00
2023-04-15T12:40:36.349Z,96031.97
2023-04-15T12:43:24.716Z,96028.56
2023-04-15T12:46:13.156Z,96039.16
2023-04-15T12:49:02.889Z,96035.91
2023-04-15T12:51:52.767Z,96041.69
2023-04-15T12:54:41.214Z,96039.78
2023-04-15T12:57:29.620Z,96047.19
2023-04-15T13:00:18.513Z,96043.78
2023-04-15T13:03:07.328Z,96046.00
2023-04-15T13:05:57.831Z,96045.56
2023-04-15T13:08:57.423Z,96050.50
2023-04-15T13:14:35.533Z,96054.16
2023-04-15T13:17:23.907Z,96058.88
2023-04-15T13:20:12.467Z,96064.97
2023-04-15T13:23:02.144Z,96060.09
2023-04-15T13:25:50.486Z,96078.72
2023-04-15T13:28:39.033Z,96073.38
2023-04-15T13:31:27.462Z,96068.25
2023-04-15T13:34:16.048Z,96086.03
2023-04-15T13:37:07.758Z,96080.56
2023-04-15T13:39:57.736Z,96089.44
2023-04-15T13:42:47.132Z,96098.03
2023-04-15T13:45:35.570Z,96093.94
2023-04-15T13:48:24.044Z,96094.44
2023-04-15T13:51:12.413Z,96098.44
2023-04-15T13:54:00.901Z,96105.38
2023-04-15T13:56:50.755Z,96104.91
2023-04-15T13:59:39.090Z,96094.56
2023-04-15T14:02:27.705Z,96119.56
2023-04-15T14:05:16.149Z,96116.56
2023-04-15T14:08:04.504Z,96108.50
2023-04-15T14:10:52.890Z,96113.41
2023-04-15T14:13:42.594Z,96118.97
2023-04-15T14:16:31.114Z,96113.28
2023-04-15T14:19:19.514Z,96118.66
2023-04-15T14:22:07.896Z,96123.94
2023-04-15T14:24:56.291Z,96135.75
2023-04-15T14:27:44.733Z,96138.84
2023-04-15T14:30:34.761Z,96148.59
2023-04-15T14:33:23.209Z,96151.88
2023-04-15T14:36:11.612Z,96153.13
2023-04-15T14:39:00.022Z,96153.19
2023-04-15T14:41:48.732Z,96158.53
2023-04-15T14:44:37.182Z,96162.88
2023-04-15T14:47:26.918Z,96158.53
2023-04-15T14:50:15.454Z,96164.88
2023-04-15T14:53:03.878Z,96168.44
2023-04-15T14:55:52.291Z,96175.19
2023-04-15T14:58:40.806Z,96170.72
2023-04-15T15:01:30.154Z,96171.72
2023-04-15T15:04:20.232Z,96176.56
2023-04-15T15:07:08.835Z,96178.78
2023-04-15T15:09:57.532Z,96174.81
2023-04-15T15:12:46.051Z,96186.28
2023-04-15T15:15:34.541Z,96194.03
2023-04-15T15:18:25.490Z,96195.63
2023-04-15T15:21:15.305Z,96196.59
2023-04-15T15:24:04.028Z,96212.19
2023-04-15T15:26:52.580Z,96215.22
2023-04-15T15:29:41.029Z,96221.59
2023-04-15T15:32:29.462Z,96213.56
2023-04-15T15:35:17.816Z,96218.63
2023-04-15T15:38:07.578Z,96225.25
2023-04-15T15:40:55.930Z,96235.28
2023-04-15T15:43:44.297Z,96227.66
2023-04-15T15:46:32.654Z,96236.66
2023-04-15T15:49:21.062Z,96237.06
2023-04-15T15:52:09.746Z,96235.19
2023-04-15T15:54:59.476Z,96251.88
2023-04-15T15:57:47.854Z,96250.34
2023-04-15T16:00:36.768Z,96243.38
2023-04-15T16:03:25.311Z,96255.88
2023-04-15T16:06:13.714Z,96254.88
2023-04-15T16:09:02.345Z,96257.16
2023-04-15T16:11:52.462Z,96261.63
2023-04-15T16:14:40.914Z,96264.00
2023-04-15T16:17:29.291Z,96272.50
2023-04-15T16:20:17.685Z,96276.44
2023-04-15T16:23:11.627Z,96281.69
2023-04-15T16:26:00.930Z,96277.53
2023-04-15T16:28:50.715Z,96282.81
2023-04-15T16:31:41.423Z,96286.25
2023-04-15T16:34:29.815Z,96287.25
2023-04-15T16:37:18.239Z,96295.38
2023-04-15T16:40:08.355Z,96302.69
2023-04-15T16:42:56.853Z,96296.66
2023-04-15T16:45:50.885Z,96306.94
2023-04-15T16:48:39.680Z,96309.69
2023-04-15T16:51:29.092Z,96313.31
2023-04-15T16:54:17.455Z,96323.56
2023-04-15T16:57:05.810Z,96326.63
2023-04-15T16:59:54.151Z,96321.00
2023-04-15T17:02:44.132Z,96328.13
2023-04-15T17:05:32.872Z,96333.47
2023-04-15T17:08:21.399Z,96331.69
2023-04-15T17:11:09.950Z,96334.56
2023-04-15T17:13:58.399Z,96339.56
2023-04-15T17:16:47.605Z,96344.00
2023-04-15T17:19:37.528Z,96353.81
2023-04-15T17:22:28.680Z,96350.72
2023-04-15T17:25:17.717Z,96348.41
2023-04-15T17:28:10.847Z,96349.78
2023-04-15T17:30:59.665Z,96358.16
2023-04-15T17:34:09.316Z,96364.25
2023-04-15T17:36:59.421Z,96370.94
2023-04-15T17:40:09.095Z,96378.31
2023-04-15T17:43:17.402Z,96376.66
2023-04-15T17:46:25.984Z,96383.59
2023-04-15T17:49:34.479Z,96388.81
2023-04-15T17:52:45.122Z,96395.72
2023-04-15T17:55:53.833Z,96390.38
2023-04-15T17:59:02.595Z,96392.56
2023-04-15T18:02:11.619Z,96397.75
2023-04-15T18:05:20.876Z,96403.16
2023-04-15T18:08:30.725Z,96414.13
2023-04-15T18:11:40.096Z,96422.03
2023-04-15T18:14:48.435Z,96423.59
2023-04-15T18:17:56.785Z,96424.31
2023-04-15T18:20:45.114Z,96431.13
2023-04-15T18:23:34.849Z,96435.16
2023-04-15T18:26:23.177Z,96438.41
2023-04-15T18:29:11.760Z,96453.41
2023-04-15T18:32:02.699Z,96451.84
2023-04-15T18:34:51.166Z,96452.84
2023-04-15T18:37:39.585Z,96457.94
2023-04-15T18:40:29.372Z,96460.34
2023-04-15T18:43:17.757Z,96469.78
2023-04-15T18:46:10.095Z,96467.41
2023-04-15T18:48:58.545Z,96476.78
2023-04-15T18:51:46.974Z,96483.91
2023-04-15T18:54:35.367Z,96488.53
2023-04-15T18:57:32.566Z,96492.47
2023-04-15T19:00:23.416Z,96490.59
2023-04-15T19:03:11.936Z,96495.94
2023-04-15T19:06:00.353Z,96500.69
2023-04-15T19:08:48.738Z,96500.47
2023-04-15T19:11:37.101Z,96498.22
2023-04-15T19:14:26.907Z,96507.63
2023-04-15T19:17:15.415Z,96514.25
2023-04-15T19:20:03.807Z,96514.38
2023-04-15T19:22:52.202Z,96525.59
2023-04-15T19:25:40.676Z,96528.38
2023-04-15T19:28:29.174Z,96524.53
2023-04-15T19:31:19.039Z,96533.56
2023-04-15T19:34:07.450Z,96540.03
2023-04-15T19:36:55.981Z,96535.41
2023-04-15T19:39:44.364Z,96536.00
2023-04-15T19:42:32.694Z,96539.59
2023-04-15T19:45:21.054Z,96542.25
2023-04-15T19:48:10.777Z,96541.06
2023-04-15T19:50:59.872Z,96548.22
2023-04-15T19:53:49.543Z,96552.75
2023-04-15T19:56:37.972Z,96549.69
2023-04-15T19:59:26.353Z,96548.38
2023-04-15T20:02:14.998Z,96547.06
2023-04-15T20:05:09.669Z,96550.75
2023-04-15T20:07:59.844Z,96555.06
2023-04-15T20:10:48.340Z,96557.22
2023-04-15T20:13:36.964Z,96556.72
2023-04-15T20:16:26.342Z,96559.84
2023-04-15T20:19:14.770Z,96560.88
2023-04-15T20:22:04.478Z,96562.44
2023-04-15T20:24:52.849Z,96568.19
2023-04-15T20:27:41.461Z,96568.22
2023-04-15T20:30:30.014Z,96568.28
2023-04-15T20:33:18.504Z,96576.50
2023-04-15T20:36:07.504Z,96587.44
2023-04-15T20:38:57.207Z,96578.09
2023-04-15T20:41:45.714Z,96582.84
2023-04-15T20:44:34.558Z,96579.16
2023-04-15T20:47:23.014Z,96582.84
2023-04-15T20:50:12.602Z,96581.31
2023-04-15T20:53:01.290Z,96588.84
2023-04-15T20:55:50.995Z,96591.47
2023-04-15T20:58:39.652Z,96598.97
2023-04-15T21:01:28.187Z,96594.75
2023-04-15T21:04:16.723Z,96598.50
2023-04-15T21:07:05.199Z,96598.50
2023-04-15T21:09:55.266Z,96603.81
2023-04-15T21:12:44.953Z,96602.72
2023-04-15T21:15:33.382Z,96613.94
2023-04-15T21:18:21.865Z,96617.13
2023-04-15T21:21:10.246Z,96618.72
2023-04-15T21:23:59.670Z,96618.72
2023-04-15T21:26:48.116Z,96619.81
2023-04-15T21:29:40.269Z,96619.75
2023-04-15T21:32:30.502Z,96624.06
2023-04-15T21:35:18.989Z,96629.94
2023-04-15T21:38:07.431Z,96634.25
2023-04-15T21:40:55.897Z,96634.56
2023-04-15T21:43:44.216Z,96632.69
2023-04-15T21:46:35.633Z,96644.09
2023-04-15T21:49:25.574Z,96637.19
2023-04-15T21:52:14.007Z,96638.22
2023-04-15T21:55:02.405Z,96638.47
2023-04-15T21:57:50.851Z,96640.41
2023-04-15T22:00:40.873Z,96644.41
2023-04-15T22:03:33.527Z,96654.28
2023-04-15T22:06:22.337Z,96649.69
2023-04-15T22:09:13.984Z,96646.44
2023-04-15T22:12:05.352Z,96649.06
2023-04-15T22:14:53.905Z,96650.66
2023-04-15T22:17:44.437Z,96654.59
2023-04-15T22:20:34.419Z,96660.72
2023-04-15T22:23:22.798Z,96664.28
2023-04-15T22:26:11.265Z,96662.94
2023-04-15T22:28:59.629Z,96677.84
2023-04-15T22:31:48.033Z,96678.38
2023-04-15T22:34:36.398Z,96689.09
2023-04-15T22:37:26.208Z,96690.00
2023-04-15T22:40:15.063Z,96685.13
2023-04-15T22:43:03.499Z,96691.22
2023-04-15T22:45:53.074Z,96692.50
2023-04-15T22:48:42.526Z,96697.31
2023-04-15T22:51:31.550Z,96698.66
2023-04-15T22:54:21.326Z,96700.00
2023-04-15T22:57:09.685Z,96703.47
2023-04-15T22:59:58.053Z,96692.00
2023-04-15T23:02:46.511Z,96708.63
2023-04-15T23:05:34.904Z,96704.31
2023-04-15T23:08:23.929Z,96693.59
2023-04-15T23:11:13.977Z,96697.34
2023-04-15T23:14:02.662Z,96701.63
2023-04-15T23:16:51.060Z,96696.38
2023-04-15T23:19:39.469Z,96699.50
2023-04-15T23:22:27.787Z,96711.50
2023-04-15T23:25:16.293Z,96708.31
2023-04-15T23:28:07.056Z,96703.78
2023-04-15T23:30:55.493Z,96704.53
2023-04-15T23:33:43.922Z,96699.47
2023-04-15T23:36:32.851Z,96702.94
2023-04-15T23:39:21.203Z,96699.44
2023-04-15T23:42:09.578Z,96701.28
2023-04-15T23:44:59.296Z,96704.75
2023-04-15T23:47:47.762Z,96711.47
2023-04-15T23:50:36.168Z,96708.53
2023-04-15T23:53:24.550Z,96704.84
2023-04-15T23:56:12.872Z,96711.75
2023-04-15T23:59:01.280Z,96706.91
